createdAt,value
2019-04-22T00:01:19.647Z,47.40
2019-04-22T00:03:53.163Z,48.89
2019-04-22T00:06:48.429Z,47.98
2019-04-22T00:09:17.382Z,47.59
2019-04-22T00:11:54.239Z,47.35
2019-04-22T00:14:17.889Z,47.69
2019-04-22T00:17:00.759Z,48.69
2019-04-22T00:19:36.036Z,49.40
2019-04-22T00:22:07.829Z,50.30
2019-04-22T00:24:31.823Z,49.18
2019-04-22T00:27:17.196Z,49.99
2019-04-22T00:32:11.675Z,49.14
2019-04-22T00:34:52.045Z,49.37
2019-04-22T00:37:25.144Z,50.35
2019-04-22T00:40:16.446Z,49.81
2019-04-22T00:42:38.837Z,49.66
2019-04-22T00:45:06.371Z,49.02
2019-04-22T00:50:23.570Z,50.88
2019-04-22T00:52:41.975Z,51.19
2019-04-22T00:55:23.041Z,52.34
2019-04-22T00:57:46.436Z,48.68
2019-04-22T01:00:17.717Z,49.48
2019-04-22T01:02:54.384Z,48.83
2019-04-22T01:05:32.690Z,49.45
2019-04-22T01:08:01.123Z,48.63
2019-04-22T01:10:31.860Z,48.88
2019-04-22T01:13:04.697Z,48.53
2019-04-22T01:15:40.186Z,49.29
2019-04-22T01:18:09.341Z,49.08
2019-04-22T01:21:02.169Z,50.21
2019-04-22T01:23:14.765Z,49.49
2019-04-22T01:25:46.318Z,50.78
2019-04-22T01:28:14.242Z,51.18
2019-04-22T01:30:41.219Z,50.88
2019-04-22T01:33:14.062Z,52.24
2019-04-22T01:36:00.446Z,52.20
2019-04-22T01:38:31.446Z,51.73
2019-04-22T01:41:11.189Z,51.57
2019-04-22T01:43:51.850Z,51.91
2019-04-22T01:46:19.754Z,51.88
2019-04-22T01:48:52.892Z,51.43
2019-04-22T01:51:12.465Z,51.48
2019-04-22T01:53:58.032Z,52.25
2019-04-22T01:56:28.608Z,51.92
2019-04-22T01:58:50.219Z,51.87
2019-04-22T02:01:37.420Z,50.41
2019-04-22T02:04:10.113Z,50.67
2019-04-22T02:09:18.856Z,49.63
2019-04-22T02:11:49.591Z,51.96
2019-04-22T02:14:19.897Z,52.35
2019-04-22T02:16:50.074Z,52.25
2019-04-22T02:19:22.892Z,53.23
2019-04-22T02:21:51.680Z,53.13
2019-04-22T02:24:26.429Z,51.25
2019-04-22T02:26:56.124Z,51.76
2019-04-22T02:29:34.645Z,52.26
2019-04-22T02:32:19.566Z,52.37
2019-04-22T02:34:39.627Z,52.65
2019-04-22T02:37:16.328Z,52.69
2019-04-22T02:39:52.786Z,52.14
2019-04-22T02:42:19.571Z,52.74
2019-04-22T02:44:57.940Z,51.13
2019-04-22T02:47:20.623Z,51.51
2019-04-22T02:50:02.357Z,51.63
2019-04-22T02:52:31.159Z,52.39
2019-04-22T02:55:11.591Z,51.26
2019-04-22T03:00:12.255Z,52.36
2019-04-22T03:02:50.723Z,52.86
2019-04-22T03:05:19.443Z,53.32
2019-04-22T03:07:50.578Z,52.92
2019-04-22T03:10:20.396Z,52.00
2019-04-22T03:12:54.119Z,51.37
2019-04-22T03:15:21.957Z,52.02
2019-04-22T03:18:01.247Z,52.04
2019-04-22T03:20:29.204Z,52.15
2019-04-22T03:28:04.669Z,52.42
2019-04-22T03:35:49.779Z,52.48
2019-04-22T03:38:37.551Z,52.38
2019-04-22T03:41:03.586Z,53.03
2019-04-22T03:43:36.206Z,52.61
2019-04-22T03:45:51.569Z,52.63
2019-04-22T03:48:38.358Z,52.03
2019-04-22T03:51:18.321Z,52.79
2019-04-22T03:53:40.359Z,53.29
2019-04-22T03:56:19.116Z,53.52
2019-04-22T03:58:52.761Z,53.92
2019-04-22T04:01:30.164Z,53.90
2019-04-22T04:04:01.228Z,54.54
2019-04-22T04:06:36.225Z,52.77
2019-04-22T04:09:03.394Z,52.98
2019-04-22T04:11:38.548Z,53.02
2019-04-22T04:16:39.577Z,54.54
2019-04-22T04:21:50.460Z,54.54
2019-04-22T04:24:32.723Z,53.79
2019-04-22T04:31:55.212Z,52.72
2019-04-22T04:44:53.377Z,51.67
2019-04-22T04:47:23.567Z,51.86
2019-04-22T04:49:48.429Z,51.57
2019-04-22T04:52:17.066Z,51.69
2019-04-22T04:54:53.834Z,51.02
2019-04-22T04:57:31.190Z,51.00
2019-04-22T05:00:32.698Z,51.13
2019-04-22T05:02:29.073Z,51.18
2019-04-22T05:05:06.233Z,51.40
2019-04-22T05:07:38.258Z,52.01
2019-04-22T05:12:50.870Z,50.43
2019-04-22T05:15:17.646Z,50.26
2019-04-22T05:20:21.458Z,51.48
2019-04-22T05:22:39.986Z,50.87
2019-04-22T05:27:47.391Z,50.37
2019-04-22T05:32:52.816Z,50.12
2019-04-22T05:37:57.773Z,50.30
2019-04-22T05:43:02.266Z,49.23
2019-04-22T05:45:31.558Z,49.78
2019-04-22T05:48:18.328Z,48.92
2019-04-22T05:50:37.339Z,47.79
2019-04-22T05:53:07.084Z,47.56
2019-04-22T05:55:52.099Z,48.65
2019-04-22T05:58:20.671Z,47.14
2019-04-22T06:01:29.087Z,46.27
2019-04-22T06:03:38.991Z,46.51
2019-04-22T06:06:08.982Z,45.81
2019-04-22T06:08:48.847Z,45.14
2019-04-22T06:11:24.101Z,45.06
2019-04-22T06:13:50.747Z,44.56
2019-04-22T06:16:26.535Z,45.53
2019-04-22T06:19:01.824Z,44.65
2019-04-22T06:21:34.983Z,44.17
2019-04-22T06:24:12.665Z,44.20
2019-04-22T06:26:46.308Z,43.80
2019-04-22T06:32:06.401Z,43.70
2019-04-22T06:34:17.837Z,43.38
2019-04-22T06:36:53.663Z,43.15
2019-04-22T06:41:56.521Z,42.21
2019-04-22T06:44:24.151Z,42.56
2019-04-22T06:46:56.353Z,42.88
2019-04-22T06:49:33.324Z,41.84
2019-04-22T06:52:10.605Z,41.60
2019-04-22T06:57:06.105Z,42.37
2019-04-22T06:59:44.039Z,41.62
2019-04-22T07:02:16.914Z,40.97
2019-04-22T07:04:53.811Z,40.95
2019-04-22T07:07:21.624Z,41.30
2019-04-22T07:10:04.027Z,41.04
2019-04-22T07:12:24.754Z,40.89
2019-04-22T07:17:39.375Z,40.77
2019-04-22T07:20:08.323Z,40.75
2019-04-22T07:22:33.832Z,39.63
2019-04-22T07:25:03.123Z,38.74
2019-04-22T07:27:44.757Z,37.48
2019-04-22T07:30:15.270Z,38.28
2019-04-22T07:33:09.869Z,38.13
2019-04-22T07:35:23.930Z,37.93
2019-04-22T07:37:53.898Z,38.03
2019-04-22T07:40:29.085Z,37.70
2019-04-22T07:43:02.523Z,35.45
2019-04-22T07:45:29.577Z,35.45
2019-04-22T07:48:11.227Z,34.95
2019-04-22T07:50:49.421Z,34.32
2019-04-22T07:53:04.852Z,34.32
2019-04-22T07:55:38.142Z,34.10
2019-04-22T07:58:18.789Z,32.90
2019-04-22T08:00:48.374Z,34.06
2019-04-22T08:06:05.360Z,33.33
2019-04-22T08:08:26.370Z,34.00
2019-04-22T08:13:39.122Z,32.69
2019-04-22T08:16:04.460Z,31.50
2019-04-22T08:18:39.050Z,30.36
2019-04-22T08:21:23.646Z,31.79
2019-04-22T08:23:43.287Z,30.23
2019-04-22T08:26:12.057Z,30.09
2019-04-22T08:31:20.532Z,30.01
2019-04-22T08:33:57.056Z,29.57
2019-04-22T08:36:25.636Z,29.37
2019-04-22T08:39:01.548Z,31.76
2019-04-22T08:41:33.465Z,29.50
2019-04-22T08:44:17.368Z,29.31
2019-04-22T08:49:05.692Z,29.03
2019-04-22T08:54:18.272Z,29.00
2019-04-22T08:56:45.840Z,29.47
2019-04-22T08:59:23.249Z,28.85
2019-04-22T09:01:50.731Z,28.36
2019-04-22T09:04:16.823Z,28.68
2019-04-22T09:09:35.569Z,28.41
2019-04-22T09:12:07.855Z,27.92
2019-04-22T09:17:13.767Z,27.66
2019-04-22T09:19:42.547Z,27.45
2019-04-22T09:22:26.580Z,25.34
2019-04-22T09:24:48.548Z,26.45
2019-04-22T09:27:31.777Z,27.30
2019-04-22T09:29:54.006Z,26.43
2019-04-22T09:32:31.744Z,26.97
2019-04-22T09:34:58.893Z,25.63
2019-04-22T09:37:34.546Z,25.22
2019-04-22T09:42:39.645Z,25.23
2019-04-22T09:45:11.627Z,25.59
2019-04-22T09:47:53.873Z,25.30
2019-04-22T09:50:15.300Z,25.31
2019-04-22T09:52:48.537Z,26.33
2019-04-22T09:57:52.694Z,24.49
2019-04-22T10:00:36.225Z,22.76
2019-04-22T10:03:00.426Z,24.61
2019-04-22T10:05:34.899Z,24.09
2019-04-22T10:08:08.130Z,23.29
2019-04-22T10:10:44.716Z,23.75
2019-04-22T10:13:12.916Z,23.29
2019-04-22T10:15:49.739Z,23.69
2019-04-22T10:18:20.353Z,22.05
2019-04-22T10:21:08.698Z,24.40
2019-04-22T10:23:24.810Z,21.93
2019-04-22T10:25:58.805Z,23.03
2019-04-22T10:28:35.576Z,20.73
2019-04-22T10:30:57.536Z,19.51
2019-04-22T10:33:27.209Z,20.46
2019-04-22T10:35:41.347Z,21.53
2019-04-22T10:38:12.471Z,20.44
2019-04-22T10:40:44.852Z,21.04
2019-04-22T10:43:16.959Z,20.98
2019-04-22T10:45:50.277Z,20.31
2019-04-22T10:48:22.037Z,21.36
2019-04-22T10:50:52.889Z,20.72
2019-04-22T10:53:23.886Z,18.71
2019-04-22T10:55:54.651Z,19.50
2019-04-22T10:58:26.946Z,20.23
2019-04-22T11:00:58.220Z,20.33
2019-04-22T11:03:29.098Z,20.76
2019-04-22T11:06:01.258Z,20.40
2019-04-22T11:08:42.412Z,21.59
2019-04-22T11:11:18.908Z,21.71
2019-04-22T11:13:38.181Z,21.63
2019-04-22T11:16:09.728Z,22.33
2019-04-22T11:18:41.268Z,23.63
2019-04-22T11:21:13.568Z,22.16
2019-04-22T11:23:44.798Z,21.21
2019-04-22T11:26:15.738Z,22.53
2019-04-22T11:28:47.634Z,22.51
2019-04-22T11:31:18.753Z,22.67
2019-04-22T11:33:50.258Z,21.48
2019-04-22T11:36:21.793Z,23.33
2019-04-22T11:38:58.370Z,24.54
2019-04-22T11:41:25.608Z,24.38
2019-04-22T11:43:56.958Z,22.79
2019-04-22T11:46:29.368Z,23.30
2019-04-22T11:49:00.411Z,23.16
2019-04-22T11:51:31.983Z,23.70
2019-04-22T11:54:03.104Z,23.70
2019-04-22T11:56:34.911Z,22.43
2019-04-22T11:59:06.734Z,23.60
2019-04-22T12:01:38.991Z,23.45
2019-04-22T12:04:09.908Z,22.25
2019-04-22T12:06:41.947Z,21.26
2019-04-22T12:09:15.350Z,22.41
2019-04-22T12:11:46.903Z,23.77
2019-04-22T12:14:18.394Z,23.43
2019-04-22T12:16:49.762Z,22.39
2019-04-22T12:19:20.971Z,23.76
2019-04-22T12:21:53.079Z,22.79
2019-04-22T12:24:25.059Z,23.28
2019-04-22T12:26:56.188Z,22.41
2019-04-22T12:29:27.018Z,21.49
2019-04-22T12:31:57.888Z,21.86
2019-04-22T12:34:29.255Z,23.59
2019-04-22T12:37:00.504Z,22.57
2019-04-22T12:39:31.596Z,22.96
2019-04-22T12:42:02.769Z,22.12
2019-04-22T12:44:33.607Z,20.70
2019-04-22T12:47:06.154Z,20.74
2019-04-22T12:49:40.470Z,21.37
2019-04-22T12:52:21.942Z,22.11
2019-04-22T12:54:42.752Z,21.92
2019-04-22T12:57:14.707Z,20.91
2019-04-22T12:59:45.764Z,20.79
2019-04-22T13:02:16.542Z,20.71
2019-04-22T13:04:47.823Z,20.83
2019-04-22T13:07:19.936Z,20.99
2019-04-22T13:09:51.625Z,20.37
2019-04-22T13:12:22.576Z,19.46
2019-04-22T13:14:54.808Z,19.08
2019-04-22T13:17:27.114Z,18.62
2019-04-22T13:19:58.417Z,19.08
2019-04-22T13:22:30.511Z,18.28
2019-04-22T13:25:04.090Z,19.46
2019-04-22T13:27:35.141Z,17.56
2019-04-22T13:30:10.149Z,17.99
2019-04-22T13:32:41.145Z,19.54
2019-04-22T13:35:12.882Z,18.57
2019-04-22T13:37:43.809Z,18.76
2019-04-22T13:40:15.139Z,18.58
2019-04-22T13:42:46.838Z,17.73
2019-04-22T13:45:18.363Z,17.09
2019-04-22T13:48:09.859Z,17.91
2019-04-22T13:51:08.080Z,16.82
2019-04-22T13:53:37.834Z,17.38
2019-04-22T13:55:54.832Z,17.81
2019-04-22T13:58:15.836Z,17.57
2019-04-22T14:00:34.420Z,17.45
2019-04-22T14:03:24.619Z,18.49
2019-04-22T14:06:00.917Z,17.69
2019-04-22T14:08:33.092Z,18.09
2019-04-22T14:11:18.300Z,16.37
2019-04-22T14:13:37.778Z,18.24
2019-04-22T14:16:09.081Z,18.89
2019-04-22T14:18:41.155Z,17.99
2019-04-22T14:21:12.686Z,17.88
2019-04-22T14:23:44.742Z,18.82
2019-04-22T14:26:15.587Z,18.33
2019-04-22T14:28:47.973Z,18.54
2019-04-22T14:31:20.235Z,19.16
2019-04-22T14:33:56.956Z,18.53
2019-04-22T14:36:25.115Z,18.04
2019-04-22T14:38:57.669Z,17.88
2019-04-22T14:41:40.690Z,17.36
2019-04-22T14:45:06.580Z,17.29
2019-04-22T14:47:03.468Z,16.84
2019-04-22T14:49:31.519Z,18.16
2019-04-22T14:52:10.788Z,17.66
2019-04-22T14:54:28.469Z,17.85
2019-04-22T14:56:44.707Z,17.80
2019-04-22T14:59:16.771Z,19.11
2019-04-22T15:01:47.652Z,18.81
2019-04-22T15:04:19.380Z,17.96
2019-04-22T15:06:50.483Z,18.62
2019-04-22T15:09:24.167Z,17.18
2019-04-22T15:12:05.773Z,17.32
2019-04-22T15:14:28.126Z,17.13
2019-04-22T15:17:18.687Z,17.00
2019-04-22T15:20:01.605Z,17.87
2019-04-22T15:22:32.765Z,17.67
2019-04-22T15:25:05.185Z,17.40
2019-04-22T15:27:37.295Z,17.70
2019-04-22T15:30:09.713Z,17.82
2019-04-22T15:32:41.284Z,18.56
2019-04-22T15:35:13.403Z,18.01
2019-04-22T15:37:45.590Z,18.07
2019-04-22T15:40:16.747Z,17.72
2019-04-22T15:42:48.917Z,17.66
2019-04-22T15:45:20.553Z,17.34
2019-04-22T15:47:52.596Z,18.37
2019-04-22T15:50:24.559Z,19.02
2019-04-22T15:52:58.609Z,19.78
2019-04-22T15:55:29.156Z,20.76
2019-04-22T15:58:01.654Z,21.14
2019-04-22T16:00:44.561Z,22.10
2019-04-22T16:03:08.470Z,22.43
2019-04-22T16:05:39.347Z,23.11
2019-04-22T16:08:10.833Z,23.06
2019-04-22T16:10:42.144Z,22.17
2019-04-22T16:13:20.172Z,23.20
2019-04-22T16:15:46.741Z,23.59
2019-04-22T16:18:18.262Z,23.13
2019-04-22T16:20:50.282Z,23.62
2019-04-22T16:23:25.669Z,23.71
2019-04-22T16:26:16.037Z,24.36
2019-04-22T16:28:47.365Z,23.89
2019-04-22T16:31:19.533Z,24.32
2019-04-22T16:33:50.437Z,25.41
2019-04-22T16:36:22.670Z,25.22
2019-04-22T16:38:55.423Z,24.56
2019-04-22T16:41:26.591Z,24.92
2019-04-22T16:43:58.707Z,24.79
2019-04-22T16:46:29.779Z,24.90
2019-04-22T16:49:01.417Z,25.17
2019-04-22T16:51:32.368Z,25.46
2019-04-22T16:54:04.246Z,25.50
2019-04-22T16:56:37.094Z,25.81
2019-04-22T16:59:08.842Z,25.60
2019-04-22T17:01:43.027Z,25.40
2019-04-22T17:04:32.457Z,26.45
2019-04-22T17:07:05.868Z,26.06
2019-04-22T17:09:37.547Z,26.64
2019-04-22T17:12:09.790Z,26.26
2019-04-22T17:14:49.014Z,26.44
2019-04-22T17:17:14.893Z,27.03
2019-04-22T17:19:46.987Z,26.96
2019-04-22T17:22:17.873Z,27.35
2019-04-22T17:24:49.921Z,27.12
2019-04-22T17:27:22.278Z,28.00
2019-04-22T17:29:54.538Z,27.85
2019-04-22T17:32:27.319Z,27.90
2019-04-22T17:34:59.323Z,27.80
2019-04-22T17:37:35.175Z,28.51
2019-04-22T17:40:19.420Z,28.69
2019-04-22T17:42:59.173Z,28.58
2019-04-22T17:45:54.131Z,28.57
2019-04-22T17:48:23.936Z,28.99
2019-04-22T17:51:14.502Z,29.24
2019-04-22T17:53:41.699Z,29.52
2019-04-22T17:56:10.169Z,29.16
2019-04-22T17:58:41.989Z,29.76
2019-04-22T18:01:16.458Z,29.31
2019-04-22T18:03:32.074Z,29.41
2019-04-22T18:06:03.371Z,29.76
2019-04-22T18:08:50.136Z,29.72
2019-04-22T18:11:29.200Z,30.13
2019-04-22T18:14:00.153Z,30.00
2019-04-22T18:16:35.762Z,30.32
2019-04-22T18:19:00.539Z,30.03
2019-04-22T18:21:28.911Z,30.36
2019-04-22T18:23:58.169Z,30.94
2019-04-22T18:26:37.353Z,30.15
2019-04-22T18:29:11.668Z,30.34
2019-04-22T18:31:37.233Z,30.06
2019-04-22T18:34:10.202Z,30.80
2019-04-22T18:36:40.390Z,30.96
2019-04-22T18:39:22.461Z,30.64
2019-04-22T18:41:52.266Z,31.30
2019-04-22T18:44:31.059Z,31.00
2019-04-22T18:46:58.156Z,31.79
2019-04-22T18:49:33.880Z,31.82
2019-04-22T18:52:19.735Z,31.94
2019-04-22T18:55:12.639Z,31.58
2019-04-22T18:57:54.964Z,31.41
2019-04-22T19:00:19.019Z,32.34
2019-04-22T19:02:55.788Z,32.34
2019-04-22T19:05:39.956Z,33.02
2019-04-22T19:08:23.502Z,33.02
2019-04-22T19:11:11.237Z,32.76
2019-04-22T19:16:14.315Z,32.74
2019-04-22T19:18:37.943Z,32.88
2019-04-22T19:21:07.922Z,33.01
2019-04-22T19:23:31.914Z,32.93
2019-04-22T19:26:11.976Z,33.23
2019-04-22T19:28:54.395Z,32.63
2019-04-22T19:31:22.011Z,33.69
2019-04-22T19:33:52.334Z,34.04
2019-04-22T19:36:26.080Z,34.19
2019-04-22T19:38:59.159Z,34.19
2019-04-22T19:41:36.793Z,33.80
2019-04-22T19:44:08.729Z,34.14
2019-04-22T19:46:35.284Z,34.46
2019-04-22T19:49:19.790Z,34.93
2019-04-22T19:51:53.671Z,34.93
2019-04-22T19:54:17.408Z,34.38
2019-04-22T19:56:40.273Z,35.27
2019-04-22T19:59:19.570Z,35.63
2019-04-22T20:02:04.795Z,35.05
2019-04-22T20:04:46.108Z,35.15
2019-04-22T20:07:13.061Z,35.65
2019-04-22T20:09:52.187Z,35.54
2019-04-22T20:12:21.747Z,35.62
2019-04-22T20:14:55.700Z,36.01
2019-04-22T20:17:41.670Z,35.61
2019-04-22T20:20:05.916Z,36.63
2019-04-22T20:22:32.783Z,36.63
2019-04-22T20:24:53.839Z,36.03
2019-04-22T20:27:41.590Z,36.21
2019-04-22T20:30:14.343Z,37.00
2019-04-22T20:32:41.286Z,37.01
2019-04-22T20:35:21.284Z,37.09
2019-04-22T20:37:51.059Z,37.58
2019-04-22T20:40:31.655Z,37.05
2019-04-22T20:43:04.006Z,36.77
2019-04-22T20:45:36.447Z,38.29
2019-04-22T20:47:53.518Z,37.02
2019-04-22T20:50:41.646Z,37.59
2019-04-22T20:53:11.856Z,37.79
2019-04-22T20:55:43.613Z,38.31
2019-04-22T20:58:15.097Z,37.81
2019-04-22T21:00:40.565Z,38.69
2019-04-22T21:03:13.210Z,39.35
2019-04-22T21:05:47.120Z,39.65
2019-04-22T21:08:30.568Z,39.96
2019-04-22T21:10:52.063Z,40.75
2019-04-22T21:13:27.858Z,39.87
2019-04-22T21:16:10.830Z,40.44
2019-04-22T21:18:39.417Z,41.11
2019-04-22T21:21:13.965Z,41.31
2019-04-22T21:23:38.384Z,40.75
2019-04-22T21:26:13.584Z,40.93
2019-04-22T21:28:49.086Z,41.18
2019-04-22T21:31:30.790Z,42.19
2019-04-22T21:34:02.237Z,42.36
2019-04-22T21:39:02.533Z,42.36
2019-04-22T21:41:30.677Z,42.07
2019-04-22T21:44:05.223Z,42.74
2019-04-22T21:46:42.581Z,43.18
2019-04-22T21:49:18.492Z,42.44
2019-04-22T21:51:49.328Z,43.17
2019-04-22T21:54:21.877Z,42.86
2019-04-22T21:57:07.490Z,43.50
2019-04-22T21:59:32.087Z,42.89
2019-04-22T22:02:28.268Z,43.67
2019-04-22T22:04:52.648Z,44.33
2019-04-22T22:07:13.927Z,45.33
2019-04-22T22:09:59.627Z,45.51
2019-04-22T22:12:36.092Z,45.56
2019-04-22T22:15:08.710Z,43.81
2019-04-22T22:17:35.595Z,45.50
2019-04-22T22:20:06.179Z,46.22
2019-04-22T22:25:20.168Z,45.64
2019-04-22T22:27:44.458Z,45.81
2019-04-22T22:33:01.298Z,45.38
2019-04-22T22:35:31.249Z,44.78
2019-04-22T22:38:06.598Z,44.81
2019-04-22T22:40:21.929Z,44.05
2019-04-22T22:42:53.345Z,45.59
2019-04-22T22:45:33.700Z,45.21
2019-04-22T22:48:23.968Z,46.17
2019-04-22T22:50:49.222Z,46.58
2019-04-22T22:53:28.805Z,44.95
2019-04-22T22:55:52.139Z,44.52
2019-04-22T22:58:28.021Z,45.17
2019-04-22T23:00:57.909Z,45.03
2019-04-22T23:03:48.404Z,44.98
2019-04-22T23:06:15.736Z,45.10
2019-04-22T23:08:38.302Z,44.77
2019-04-22T23:11:11.773Z,44.84
2019-04-22T23:13:49.771Z,45.38
2019-04-22T23:16:13.132Z,45.38
2019-04-22T23:18:34.345Z,46.37
2019-04-22T23:21:08.230Z,45.93
2019-04-22T23:23:57.753Z,46.46
2019-04-22T23:26:38.856Z,47.09
2019-04-22T23:29:03.934Z,47.77
2019-04-22T23:31:37.509Z,48.17
2019-04-22T23:34:11.885Z,48.20
2019-04-22T23:36:52.555Z,47.70
2019-04-22T23:39:27.324Z,46.29
2019-04-22T23:42:19.419Z,47.27
2019-04-22T23:44:31.895Z,47.36
2019-04-22T23:46:58.452Z,47.62
2019-04-22T23:49:32.578Z,46.88
2019-04-22T23:52:13.317Z,48.09
2019-04-22T23:54:50.913Z,49.04
2019-04-22T23:57:14.878Z,47.67
2019-04-22T23:59:56.395Z,48.30
